Time;durP1;ratioP1;P1;durP2;ratioP2;P2;SDS_P1;SDS_P2;PMS_P1;PMS_P2;Temp;Humidity;BMP_temperature;BMP_pressure;BME280_temperature;BME280_humidity;BME280_pressure;Samples;Min_cycle;Max_cycle;Signal;HPM_P1;HPM_P2
2021/06/23 00:02:18;;;;;;;7.78;2.83;;;;;;;;;;5105334;27;20034;-43
2021/06/23 00:04:44;;;;;;;13.55;4.32;;;;;;;;;;5103821;27;20052;-43
2021/06/23 00:10:13;;;;;;;4.93;3.78;;;;;;;;;;5107260;27;20344;-43
2021/06/23 00:12:39;;;;;;;4.00;3.22;;;;;;;;;;5102583;27;20489;-43
2021/06/23 00:15:05;;;;;;;3.05;2.40;;;;;;;;;;5101881;27;20023;-43
2021/06/23 00:17:31;;;;;;;3.90;2.17;;;;;;;;;;5101674;27;20031;-43
2021/06/23 00:19:56;;;;;;;15.68;4.65;;;;;;;;;;5106123;27;20024;-43
2021/06/23 00:22:22;;;;;;;5.22;2.35;;;;;;;;;;5100810;27;20020;-43
2021/06/23 00:24:47;;;;;;;6.20;3.58;;;;;;;;;;5099507;27;20024;-43
2021/06/23 00:27:13;;;;;;;7.43;2.88;;;;;;;;;;5098804;27;20022;-43
2021/06/23 00:29:38;;;;;;;11.02;3.17;;;;;;;;;;5102048;27;20386;-43
2021/06/23 00:32:03;;;;;;;9.18;3.85;;;;;;;;;;5100357;27;20089;-43
2021/06/23 00:34:30;;;;;;;7.40;2.85;;;;;;;;;;5098770;27;20099;-43
2021/06/23 00:36:56;;;;;;;8.35;3.15;;;;;;;;;;5098370;27;20016;-43
2021/06/23 00:39:22;;;;;;;7.35;4.18;;;;;;;;;;5101862;27;20016;-43
2021/06/23 00:41:47;;;;;;;5.85;2.70;;;;;;;;;;5104647;27;20057;-43
2021/06/23 00:44:13;;;;;;;5.40;3.03;;;;;;;;;;5106777;27;20495;-43
2021/06/23 00:46:39;;;;;;;5.30;2.72;;;;;;;;;;5107317;27;20038;-43
2021/06/23 00:49:04;;;;;;;8.38;3.55;;;;;;;;;;5103500;27;20031;-43
2021/06/23 00:51:29;;;;;;;9.00;2.63;;;;;;;;;;5106260;27;20070;-43
2021/06/23 00:53:55;;;;;;;14.15;3.72;;;;;;;;;;5110611;27;20432;-43
2021/06/23 00:56:27;;;;;;;5.22;3.88;;;;;;;;;;5106886;27;20023;-43
2021/06/23 00:58:53;;;;;;;3.67;2.88;;;;;;;;;;5105152;27;20585;-43
2021/06/23 01:01:18;;;;;;;8.18;3.67;;;;;;;;;;5100807;27;20107;-42
2021/06/23 01:03:44;;;;;;;6.30;3.13;;;;;;;;;;5107743;27;20092;-42
2021/06/23 01:06:09;;;;;;;12.35;4.57;;;;;;;;;;5105710;27;20019;-42
2021/06/23 01:08:35;;;;;;;3.78;2.75;;;;;;;;;;5096936;27;20046;-42
2021/06/23 01:11:04;;;;;;;3.95;2.55;;;;;;;;;;5102149;27;20103;-42
2021/06/23 01:13:37;;;;;;;11.02;3.25;;;;;;;;;;5103150;27;20486;-42
2021/06/23 01:16:04;;;;;;;5.43;3.47;;;;;;;;;;5102223;28;20050;-42
2021/06/23 01:18:32;;;;;;;7.47;2.72;;;;;;;;;;5100657;27;20119;-42
2021/06/23 01:20:57;;;;;;;12.63;3.88;;;;;;;;;;5104746;27;20019;-42
2021/06/23 01:23:23;;;;;;;5.88;3.65;;;;;;;;;;5102025;27;20513;-42
2021/06/23 01:25:49;;;;;;;5.65;2.88;;;;;;;;;;5111755;27;20481;-42
2021/06/23 01:28:14;;;;;;;9.82;2.58;;;;;;;;;;5109176;27;20031;-42
2021/06/23 01:30:40;;;;;;;5.85;3.17;;;;;;;;;;5102471;27;20486;-42
2021/06/23 01:33:05;;;;;;;15.15;2.97;;;;;;;;;;5099367;27;20066;-42
2021/06/23 01:35:31;;;;;;;5.68;3.40;;;;;;;;;;5101432;27;20028;-42
2021/06/23 01:37:57;;;;;;;3.90;2.75;;;;;;;;;;5100817;27;20046;-42
2021/06/23 01:40:22;;;;;;;3.95;2.72;;;;;;;;;;5111265;27;20048;-42
2021/06/23 01:42:47;;;;;;;9.50;3.58;;;;;;;;;;5108998;27;20106;-42
2021/06/23 01:45:14;;;;;;;10.40;3.13;;;;;;;;;;5097521;27;20037;-43
2021/06/23 01:47:39;;;;;;;6.93;4.05;;;;;;;;;;5099340;27;20024;-42
2021/06/23 01:50:04;;;;;;;4.97;3.50;;;;;;;;;;5100762;27;20860;-42
2021/06/23 01:52:30;;;;;;;8.38;4.20;;;;;;;;;;5101626;27;20024;-42
2021/06/23 01:54:55;;;;;;;6.93;3.65;;;;;;;;;;5104208;27;20024;-42
2021/06/23 01:57:20;;;;;;;7.43;3.28;;;;;;;;;;5106000;27;20059;-42
2021/06/23 01:59:47;;;;;;;6.20;3.28;;;;;;;;;;5098596;27;20028;-42
2021/06/23 02:02:20;;;;;;;4.93;3.20;;;;;;;;;;5101557;27;20090;-42
2021/06/23 02:05:04;;;;;;;11.10;3.58;;;;;;;;;;5106665;27;20043;-42
2021/06/23 02:07:29;;;;;;;6.13;4.38;;;;;;;;;;5102774;28;20114;-42
2021/06/23 02:10:00;;;;;;;10.85;4.75;;;;;;;;;;5103348;27;20537;-42
2021/06/23 02:12:26;;;;;;;7.90;3.50;;;;;;;;;;5106494;27;20020;-42
2021/06/23 02:14:52;;;;;;;6.93;3.45;;;;;;;;;;5102831;28;20019;-42
2021/06/23 02:17:17;;;;;;;6.85;3.75;;;;;;;;;;5100604;27;20023;-42
2021/06/23 02:19:46;;;;;;;6.75;2.95;;;;;;;;;;5100483;27;20027;-42
2021/06/23 02:22:13;;;;;;;10.80;4.30;;;;;;;;;;5099703;28;20080;-42
2021/06/23 02:24:39;;;;;;;4.45;2.88;;;;;;;;;;5100881;28;20020;-42
2021/06/23 02:27:04;;;;;;;4.22;3.63;;;;;;;;;;5096446;28;20019;-43
2021/06/23 02:29:30;;;;;;;13.13;3.25;;;;;;;;;;5097222;28;20161;-43
2021/06/23 02:31:56;;;;;;;7.60;4.13;;;;;;;;;;5097073;28;20030;-43
2021/06/23 02:34:23;;;;;;;4.32;2.50;;;;;;;;;;5102790;28;20054;-44
2021/06/23 02:36:49;;;;;;;4.47;3.90;;;;;;;;;;5107928;28;20027;-43
2021/06/23 02:39:14;;;;;;;7.68;3.13;;;;;;;;;;5107268;27;20617;-43
2021/06/23 02:41:40;;;;;;;8.38;4.03;;;;;;;;;;5105832;28;20028;-43
2021/06/23 02:44:07;;;;;;;4.55;3.00;;;;;;;;;;5108321;28;20056;-43
2021/06/23 02:46:32;;;;;;;8.90;4.05;;;;;;;;;;5102253;28;20016;-43
2021/06/23 02:48:58;;;;;;;5.18;3.30;;;;;;;;;;5109119;28;20015;-42
2021/06/23 02:51:24;;;;;;;15.07;3.75;;;;;;;;;;5103746;28;20016;-43
2021/06/23 02:53:51;;;;;;;17.40;4.88;;;;;;;;;;5107060;28;20042;-43
2021/06/23 02:56:16;;;;;;;11.52;4.82;;;;;;;;;;5101042;28;20031;-43
2021/06/23 02:58:42;;;;;;;11.07;3.65;;;;;;;;;;5095561;28;20024;-43
2021/06/23 03:01:08;;;;;;;4.13;3.72;;;;;;;;;;5098951;28;20106;-43
2021/06/23 03:03:34;;;;;;;9.13;3.65;;;;;;;;;;5099486;28;20027;-43
2021/06/23 03:06:02;;;;;;;5.45;3.35;;;;;;;;;;5104935;28;20153;-43
2021/06/23 03:08:28;;;;;;;3.92;2.78;;;;;;;;;;5106808;27;20127;-43
2021/06/23 03:10:54;;;;;;;5.47;3.17;;;;;;;;;;5107633;27;20255;-43
2021/06/23 03:13:19;;;;;;;3.92;2.60;;;;;;;;;;5100467;28;20028;-43
2021/06/23 03:15:45;;;;;;;3.58;2.83;;;;;;;;;;5101965;28;20030;-43
2021/06/23 03:18:10;;;;;;;6.30;4.95;;;;;;;;;;5101443;28;20020;-43
2021/06/23 03:20:35;;;;;;;6.35;3.45;;;;;;;;;;5102021;27;20081;-43
2021/06/23 03:23:00;;;;;;;5.22;3.05;;;;;;;;;;5104549;27;20358;-42
2021/06/23 03:25:26;;;;;;;4.32;3.28;;;;;;;;;;5104554;28;20012;-42
2021/06/23 03:27:52;;;;;;;4.60;2.97;;;;;;;;;;5111129;27;20023;-42
2021/06/23 03:30:18;;;;;;;6.60;2.42;;;;;;;;;;5106704;27;20016;-42
2021/06/23 03:32:44;;;;;;;6.70;4.40;;;;;;;;;;5104328;27;20042;-42
2021/06/23 03:35:10;;;;;;;6.32;3.83;;;;;;;;;;5102959;27;20012;-43
2021/06/23 03:37:35;;;;;;;8.13;4.70;;;;;;;;;;5103317;28;20031;-42
2021/06/23 03:40:00;;;;;;;7.45;3.67;;;;;;;;;;5105029;27;20104;-42
2021/06/23 03:42:26;;;;;;;6.35;3.97;;;;;;;;;;5106027;27;20096;-42
2021/06/23 03:44:51;;;;;;;20.38;4.60;;;;;;;;;;5106980;27;20498;-42
2021/06/23 03:47:16;;;;;;;7.82;4.80;;;;;;;;;;5101891;27;20043;-42
2021/06/23 03:49:42;;;;;;;4.43;3.88;;;;;;;;;;5105848;27;20438;-42
2021/06/23 03:52:07;;;;;;;5.80;3.28;;;;;;;;;;5103782;27;20027;-42
2021/06/23 03:54:32;;;;;;;7.93;3.58;;;;;;;;;;5100456;27;20016;-43
2021/06/23 03:56:58;;;;;;;7.50;3.65;;;;;;;;;;5103602;27;20020;-42
2021/06/23 03:59:23;;;;;;;8.32;3.78;;;;;;;;;;5102612;27;20818;-43
2021/06/23 04:01:48;;;;;;;5.03;4.00;;;;;;;;;;5101187;27;20041;-42
2021/06/23 04:04:14;;;;;;;10.52;5.22;;;;;;;;;;5104382;27;20027;-42
2021/06/23 04:06:39;;;;;;;5.55;4.57;;;;;;;;;;5106584;27;20072;-42
2021/06/23 04:09:04;;;;;;;5.25;3.38;;;;;;;;;;5103384;27;20375;-42
2021/06/23 04:11:30;;;;;;;6.68;4.35;;;;;;;;;;5102360;27;20490;-42
2021/06/23 04:13:55;;;;;;;6.95;4.45;;;;;;;;;;5098730;27;20395;-42
2021/06/23 04:16:21;;;;;;;7.60;4.22;;;;;;;;;;5098051;27;20372;-42
2021/06/23 04:18:46;;;;;;;8.88;3.67;;;;;;;;;;5104384;27;20025;-42
2021/06/23 04:21:11;;;;;;;11.43;4.50;;;;;;;;;;5098648;27;20077;-43
2021/06/23 04:23:36;;;;;;;3.90;2.67;;;;;;;;;;5103091;27;20122;-42
2021/06/23 04:26:02;;;;;;;9.93;3.85;;;;;;;;;;5101887;28;20108;-42
2021/06/23 04:28:27;;;;;;;9.45;4.93;;;;;;;;;;5106601;27;20018;-42
2021/06/23 04:30:53;;;;;;;10.20;3.88;;;;;;;;;;5101074;28;20433;-42
2021/06/23 04:33:18;;;;;;;13.10;4.18;;;;;;;;;;5108773;27;20032;-42
2021/06/23 04:35:43;;;;;;;4.15;3.17;;;;;;;;;;5110440;27;20036;-43
2021/06/23 04:38:10;;;;;;;7.43;4.18;;;;;;;;;;5109905;27;20023;-42
2021/06/23 04:40:36;;;;;;;9.82;3.70;;;;;;;;;;5107862;27;20041;-42
2021/06/23 04:43:01;;;;;;;5.70;4.20;;;;;;;;;;5105564;27;20070;-42
2021/06/23 04:45:27;;;;;;;15.90;3.05;;;;;;;;;;5101658;27;20039;-42
2021/06/23 04:47:52;;;;;;;8.23;4.55;;;;;;;;;;5098122;27;20020;-42
2021/06/23 04:50:17;;;;;;;10.25;4.40;;;;;;;;;;5102867;27;20026;-42
2021/06/23 04:52:43;;;;;;;11.65;6.50;;;;;;;;;;5100903;27;20055;-42
2021/06/23 04:55:08;;;;;;;10.02;4.60;;;;;;;;;;5100259;27;20024;-42
2021/06/23 04:57:34;;;;;;;5.65;3.28;;;;;;;;;;5113183;27;20019;-43
2021/06/23 04:59:59;;;;;;;8.23;4.30;;;;;;;;;;5108061;27;20034;-42
2021/06/23 05:02:24;;;;;;;4.65;3.58;;;;;;;;;;5106460;27;20046;-43
2021/06/23 05:04:50;;;;;;;5.70;4.82;;;;;;;;;;5102075;27;20024;-42
2021/06/23 05:07:15;;;;;;;12.80;5.07;;;;;;;;;;5102963;27;20050;-42
2021/06/23 05:09:41;;;;;;;6.57;4.65;;;;;;;;;;5109842;27;20496;-42
2021/06/23 05:12:06;;;;;;;11.15;3.95;;;;;;;;;;5102586;27;20016;-42
2021/06/23 05:14:32;;;;;;;12.63;4.82;;;;;;;;;;5098268;27;20068;-42
2021/06/23 05:16:57;;;;;;;8.82;5.32;;;;;;;;;;5104236;27;20395;-42
2021/06/23 05:19:23;;;;;;;7.85;4.93;;;;;;;;;;5104743;27;20095;-42
2021/06/23 05:21:49;;;;;;;7.80;4.32;;;;;;;;;;5104006;27;20455;-42
2021/06/23 05:24:15;;;;;;;11.18;3.65;;;;;;;;;;5098804;27;20106;-42
2021/06/23 05:26:40;;;;;;;9.75;5.13;;;;;;;;;;5104241;27;20114;-42
2021/06/23 05:29:05;;;;;;;29.10;8.15;;;;;;;;;;5103842;27;20482;-42
2021/06/23 05:31:32;;;;;;;7.38;3.13;;;;;;;;;;5104865;27;20047;-42
2021/06/23 05:33:57;;;;;;;7.60;4.13;;;;;;;;;;5108302;27;20140;-42
2021/06/23 05:36:23;;;;;;;12.88;3.53;;;;;;;;;;5104722;27;20037;-42
2021/06/23 05:38:48;;;;;;;6.40;4.47;;;;;;;;;;5100321;27;20165;-43
2021/06/23 05:41:13;;;;;;;9.10;3.47;;;;;;;;;;5099596;27;20091;-42
2021/06/23 05:43:39;;;;;;;7.45;4.70;;;;;;;;;;5104825;27;20110;-43
2021/06/23 05:46:04;;;;;;;7.93;5.70;;;;;;;;;;5101541;27;20531;-42
2021/06/23 05:48:29;;;;;;;22.10;6.13;;;;;;;;;;5102891;27;20488;-42
2021/06/23 05:50:55;;;;;;;13.32;4.43;;;;;;;;;;5107992;27;20026;-42
2021/06/23 05:53:20;;;;;;;5.47;4.35;;;;;;;;;;5105143;27;20732;-43
2021/06/23 05:55:45;;;;;;;14.65;4.97;;;;;;;;;;5103272;27;20034;-43
2021/06/23 05:58:11;;;;;;;9.82;4.65;;;;;;;;;;5099816;28;20027;-43
2021/06/23 06:00:36;;;;;;;11.80;4.50;;;;;;;;;;5100729;28;20387;-42
2021/06/23 06:03:03;;;;;;;11.30;5.28;;;;;;;;;;5097437;28;20028;-43
2021/06/23 06:05:28;;;;;;;8.10;4.30;;;;;;;;;;5103088;28;20023;-42
2021/06/23 06:07:54;;;;;;;4.85;3.40;;;;;;;;;;5098644;28;20048;-42
2021/06/23 06:10:19;;;;;;;14.70;3.95;;;;;;;;;;5100338;28;20015;-43
2021/06/23 06:12:44;;;;;;;7.75;4.30;;;;;;;;;;5103015;28;21007;-42
2021/06/23 06:15:10;;;;;;;9.27;3.92;;;;;;;;;;5099698;27;20270;-42
2021/06/23 06:17:35;;;;;;;15.43;5.57;;;;;;;;;;5097943;28;20376;-43
2021/06/23 06:20:01;;;;;;;19.55;4.75;;;;;;;;;;5100314;28;20372;-42
2021/06/23 06:22:27;;;;;;;8.73;5.30;;;;;;;;;;5105275;28;20096;-38
2021/06/23 06:24:53;;;;;;;9.93;4.25;;;;;;;;;;5104929;27;20151;-39
2021/06/23 06:27:18;;;;;;;11.43;4.57;;;;;;;;;;5105393;28;20485;-39
2021/06/23 06:29:43;;;;;;;6.30;4.57;;;;;;;;;;5103653;28;20019;-40
2021/06/23 06:32:09;;;;;;;21.58;6.75;;;;;;;;;;5094942;28;20028;-39
2021/06/23 06:34:34;;;;;;;3.72;3.38;;;;;;;;;;5099144;28;20023;-38
2021/06/23 06:36:59;;;;;;;19.45;5.13;;;;;;;;;;5096859;28;20433;-39
2021/06/23 06:39:25;;;;;;;9.20;5.18;;;;;;;;;;5103274;28;20024;-40
2021/06/23 06:41:50;;;;;;;10.25;4.93;;;;;;;;;;5102908;28;20124;-40
2021/06/23 06:44:16;;;;;;;8.45;5.47;;;;;;;;;;5103062;28;20099;-39
2021/06/23 06:46:42;;;;;;;13.30;7.65;;;;;;;;;;5101370;28;21271;-39
2021/06/23 06:49:07;;;;;;;19.88;7.93;;;;;;;;;;5101684;28;20019;-40
2021/06/23 06:51:33;;;;;;;19.52;7.90;;;;;;;;;;5099563;28;20011;-42
2021/06/23 06:53:58;;;;;;;21.75;6.88;;;;;;;;;;5103486;27;20016;-38
2021/06/23 06:56:24;;;;;;;34.70;30.58;;;;;;;;;;5107097;27;20291;-39
2021/06/23 06:58:49;;;;;;;34.50;30.92;;;;;;;;;;5106623;27;20382;-41
2021/06/23 07:01:16;;;;;;;23.13;20.73;;;;;;;;;;5102662;27;20051;-38
2021/06/23 07:03:41;;;;;;;19.00;14.43;;;;;;;;;;5102791;27;20028;-38
2021/06/23 07:06:06;;;;;;;19.30;10.57;;;;;;;;;;5105727;27;20031;-40
2021/06/23 07:08:32;;;;;;;11.77;6.10;;;;;;;;;;5110469;27;20152;-39
2021/06/23 07:10:57;;;;;;;10.48;6.07;;;;;;;;;;5108722;27;20464;-39
2021/06/23 07:13:22;;;;;;;18.35;5.10;;;;;;;;;;5106413;27;20510;-38
2021/06/23 07:15:48;;;;;;;17.02;5.20;;;;;;;;;;5103335;27;20075;-39
2021/06/23 07:18:13;;;;;;;7.22;4.25;;;;;;;;;;5105095;27;20046;-41
2021/06/23 07:20:38;;;;;;;24.30;7.80;;;;;;;;;;5109842;27;20011;-39
2021/06/23 07:23:03;;;;;;;8.73;4.50;;;;;;;;;;5106993;27;20193;-39
2021/06/23 07:25:29;;;;;;;10.77;4.13;;;;;;;;;;5105835;27;20055;-40
2021/06/23 07:27:54;;;;;;;5.43;3.42;;;;;;;;;;5105257;27;20020;-39
2021/06/23 07:30:20;;;;;;;5.93;3.63;;;;;;;;;;5101195;27;20008;-39
2021/06/23 07:32:51;;;;;;;5.95;3.38;;;;;;;;;;5104839;27;20131;-40
2021/06/23 07:38:01;;;;;;;11.52;4.18;;;;;;;;;;5107883;27;20123;-39
2021/06/23 07:41:27;;;;;;;8.32;3.80;;;;;;;;;;5096887;27;20023;-39
2021/06/23 07:43:21;;;;;;;5.28;3.85;;;;;;;;;;5094972;27;20112;-39
2021/06/23 07:45:55;;;;;;;11.85;4.68;;;;;;;;;;5102718;27;20023;-38
2021/06/23 07:48:26;;;;;;;5.68;4.57;;;;;;;;;;5100414;27;20779;-39
2021/06/23 07:50:57;;;;;;;24.35;5.43;;;;;;;;;;5103030;27;20419;-41
2021/06/23 07:53:36;;;;;;;7.65;2.53;;;;;;;;;;5103221;27;20028;-39
2021/06/23 08:11:35;;;;;;;3.25;2.35;;;;;;;;;;5099541;27;20020;-38
2021/06/23 08:14:03;;;;;;;4.57;2.20;;;;;;;;;;5096003;27;20020;-38
2021/06/23 08:16:28;;;;;;;9.75;3.28;;;;;;;;;;5101949;27;20075;-39
2021/06/23 08:18:54;;;;;;;5.20;2.63;;;;;;;;;;5100105;27;20028;-38
2021/06/23 08:21:19;;;;;;;11.05;3.53;;;;;;;;;;5100564;27;20042;-38
2021/06/23 08:23:44;;;;;;;4.43;3.30;;;;;;;;;;5099354;27;20028;-38
2021/06/23 08:26:10;;;;;;;20.95;3.40;;;;;;;;;;5094843;27;20065;-38
2021/06/23 08:28:35;;;;;;;4.97;2.33;;;;;;;;;;5102845;27;20414;-39
2021/06/23 08:31:00;;;;;;;6.30;2.63;;;;;;;;;;5099688;27;20034;-38
2021/06/23 08:33:26;;;;;;;14.15;3.30;;;;;;;;;;5101951;27;20011;-39
2021/06/23 08:35:52;;;;;;;7.43;2.25;;;;;;;;;;5103783;27;20019;-38
2021/06/23 08:38:17;;;;;;;4.90;1.80;;;;;;;;;;5100658;27;20027;-39
2021/06/23 08:40:43;;;;;;;7.75;3.08;;;;;;;;;;5108521;27;20075;-41
2021/06/23 08:43:12;;;;;;;7.03;3.40;;;;;;;;;;5101473;27;20020;-40
2021/06/23 08:45:37;;;;;;;4.75;3.15;;;;;;;;;;5098206;27;20507;-39
2021/06/23 08:48:03;;;;;;;10.45;2.47;;;;;;;;;;5101004;27;20020;-40
2021/06/23 08:50:28;;;;;;;9.50;4.43;;;;;;;;;;5102370;27;20432;-42
2021/06/23 08:52:53;;;;;;;9.20;3.63;;;;;;;;;;5098515;27;20027;-40
2021/06/23 08:55:19;;;;;;;26.77;8.00;;;;;;;;;;5098500;27;20020;-41
2021/06/23 08:57:48;;;;;;;16.65;6.18;;;;;;;;;;5104185;27;20479;-38
2021/06/23 09:00:14;;;;;;;24.17;8.77;;;;;;;;;;5099961;27;20024;-40
2021/06/23 09:02:40;;;;;;;17.48;5.07;;;;;;;;;;5094540;28;20092;-39
2021/06/23 09:05:09;;;;;;;17.92;4.38;;;;;;;;;;5103834;27;20060;-40
2021/06/23 09:07:48;;;;;;;23.25;6.93;;;;;;;;;;5101977;27;20047;-37
2021/06/23 09:10:22;;;;;;;13.00;4.20;;;;;;;;;;5101666;27;20032;-42
2021/06/23 09:13:08;;;;;;;4.85;1.85;;;;;;;;;;5101860;27;20034;-40
2021/06/23 09:15:40;;;;;;;14.75;2.58;;;;;;;;;;5100294;27;20020;-40
2021/06/23 09:18:13;;;;;;;3.78;1.95;;;;;;;;;;5099325;27;20035;-41
2021/06/23 09:20:38;;;;;;;15.40;4.15;;;;;;;;;;5101071;27;20107;-42
2021/06/23 09:23:03;;;;;;;7.53;1.95;;;;;;;;;;5107101;27;20039;-43
2021/06/23 09:25:34;;;;;;;5.90;3.55;;;;;;;;;;5105794;27;20470;-39
2021/06/23 09:28:00;;;;;;;7.07;2.75;;;;;;;;;;5106016;27;20031;-44
2021/06/23 09:30:35;;;;;;;6.05;2.25;;;;;;;;;;5098859;27;20616;-41
2021/06/23 09:33:03;;;;;;;14.15;3.50;;;;;;;;;;5101714;27;20051;-41
2021/06/23 09:35:29;;;;;;;5.03;2.53;;;;;;;;;;5103687;27;20024;-43
2021/06/23 09:37:54;;;;;;;4.32;1.85;;;;;;;;;;5097287;27;20085;-40
2021/06/23 09:40:21;;;;;;;6.63;2.33;;;;;;;;;;5098733;27;20323;-42
2021/06/23 09:42:47;;;;;;;4.47;1.77;;;;;;;;;;5101502;27;20552;-41
2021/06/23 09:45:14;;;;;;;10.05;3.10;;;;;;;;;;5097991;27;20030;-41
2021/06/23 09:47:39;;;;;;;4.00;1.73;;;;;;;;;;5095154;27;20027;-40
2021/06/23 09:50:09;;;;;;;4.93;1.90;;;;;;;;;;5097284;27;20081;-40
2021/06/23 09:52:35;;;;;;;6.18;1.52;;;;;;;;;;5099646;27;20020;-39
2021/06/23 09:55:01;;;;;;;6.03;2.30;;;;;;;;;;5101219;27;20069;-40
2021/06/23 09:57:27;;;;;;;5.00;1.88;;;;;;;;;;5105557;27;20486;-39
2021/06/23 10:00:04;;;;;;;2.90;1.17;;;;;;;;;;5097880;27;20082;-37
2021/06/23 10:02:31;;;;;;;6.88;1.85;;;;;;;;;;5095805;28;20027;-40
2021/06/23 10:05:15;;;;;;;3.75;1.40;;;;;;;;;;5092943;27;20108;-43
2021/06/23 10:07:44;;;;;;;3.40;1.33;;;;;;;;;;5097815;28;20043;-39
2021/06/23 10:10:20;;;;;;;5.20;1.63;;;;;;;;;;5097634;27;20024;-38
2021/06/23 10:12:50;;;;;;;3.08;1.42;;;;;;;;;;5098334;28;20019;-39
2021/06/23 10:15:15;;;;;;;7.47;2.85;;;;;;;;;;5097159;28;20038;-38
2021/06/23 10:17:43;;;;;;;6.30;2.80;;;;;;;;;;5099199;28;20020;-41
2021/06/23 10:20:09;;;;;;;19.98;3.70;;;;;;;;;;5094987;28;20549;-39
2021/06/23 10:22:34;;;;;;;9.82;2.65;;;;;;;;;;5099385;28;20450;-37
2021/06/23 10:25:02;;;;;;;8.40;2.78;;;;;;;;;;5103057;28;20645;-39
2021/06/23 10:27:28;;;;;;;6.63;3.22;;;;;;;;;;5103903;28;20416;-39
2021/06/23 10:29:57;;;;;;;7.28;2.28;;;;;;;;;;5105698;27;20019;-38
2021/06/23 10:32:22;;;;;;;4.20;1.45;;;;;;;;;;5107839;27;20019;-38
2021/06/23 10:34:48;;;;;;;8.02;3.33;;;;;;;;;;5109565;27;20478;-38
2021/06/23 10:37:14;;;;;;;4.55;1.48;;;;;;;;;;5106150;27;20455;-39
2021/06/23 10:39:40;;;;;;;6.60;2.47;;;;;;;;;;5102997;27;20087;-38
2021/06/23 10:42:07;;;;;;;10.05;2.08;;;;;;;;;;5100123;27;20031;-38
2021/06/23 10:44:36;;;;;;;6.38;2.17;;;;;;;;;;5109518;27;20478;-39
2021/06/23 10:47:02;;;;;;;5.90;1.50;;;;;;;;;;5103113;27;20059;-38
2021/06/23 10:49:50;;;;;;;7.68;2.28;;;;;;;;;;5108348;27;20068;-38
2021/06/23 10:52:21;;;;;;;12.38;1.63;;;;;;;;;;5108851;27;20016;-38
2021/06/23 10:54:49;;;;;;;2.47;1.25;;;;;;;;;;5106415;27;20139;-39
2021/06/23 10:57:36;;;;;;;4.45;2.13;;;;;;;;;;5106760;27;20093;-42
2021/06/23 11:00:11;;;;;;;15.73;2.22;;;;;;;;;;5099572;27;20015;-39
2021/06/23 11:02:41;;;;;;;5.90;2.28;;;;;;;;;;5107504;27;20560;-38
2021/06/23 11:05:06;;;;;;;4.47;2.10;;;;;;;;;;5108311;27;20110;-39
2021/06/23 11:07:38;;;;;;;4.07;1.40;;;;;;;;;;5102487;27;20126;-39
2021/06/23 11:10:12;;;;;;;4.10;2.00;;;;;;;;;;5108924;27;20110;-39
2021/06/23 11:12:43;;;;;;;5.85;1.25;;;;;;;;;;5108362;27;20024;-39
2021/06/23 11:15:14;;;;;;;11.02;2.17;;;;;;;;;;5101535;27;20079;-40
2021/06/23 11:17:41;;;;;;;14.38;2.38;;;;;;;;;;5081056;28;20052;-38
2021/06/23 11:20:18;;;;;;;7.22;1.13;;;;;;;;;;5078740;28;20525;-38
2021/06/23 11:22:43;;;;;;;5.97;3.65;;;;;;;;;;5080143;28;20035;-38
2021/06/23 11:25:24;;;;;;;2.92;0.85;;;;;;;;;;5078954;28;20043;-41
2021/06/23 11:28:08;;;;;;;5.03;1.65;;;;;;;;;;5080320;28;20052;-39
2021/06/23 11:31:04;;;;;;;16.25;2.88;;;;;;;;;;5081119;28;20016;-38
2021/06/23 11:33:29;;;;;;;4.88;1.50;;;;;;;;;;5078416;28;20068;-38
2021/06/23 11:36:03;;;;;;;3.03;1.75;;;;;;;;;;5078400;28;20458;-39
2021/06/23 11:38:29;;;;;;;5.97;1.38;;;;;;;;;;5080752;28;20483;-39
2021/06/23 11:40:55;;;;;;;2.35;1.20;;;;;;;;;;5078511;28;20026;-39
2021/06/23 11:43:21;;;;;;;5.05;1.65;;;;;;;;;;5075717;28;20036;-40
2021/06/23 11:45:47;;;;;;;18.23;1.65;;;;;;;;;;5075954;28;20028;-41
2021/06/23 11:48:13;;;;;;;8.15;1.38;;;;;;;;;;5077980;28;20015;-43
2021/06/23 11:50:40;;;;;;;4.65;2.42;;;;;;;;;;5075252;28;20467;-38
2021/06/23 11:53:06;;;;;;;6.22;2.10;;;;;;;;;;5075269;28;20079;-39
2021/06/23 11:55:32;;;;;;;6.78;1.48;;;;;;;;;;5072732;28;20051;-38
2021/06/23 11:57:58;;;;;;;4.75;1.33;;;;;;;;;;5069917;28;20132;-38
2021/06/23 12:00:24;;;;;;;1.05;0.40;;;;;;;;;;5074985;28;20103;-37
2021/06/23 12:02:49;;;;;;;1.50;0.77;;;;;;;;;;5076299;28;20044;-38
2021/06/23 12:05:15;;;;;;;0.85;0.30;;;;;;;;;;5078503;28;20356;-38
2021/06/23 12:07:40;;;;;;;3.72;0.98;;;;;;;;;;5076170;28;20637;-37
2021/06/23 12:10:06;;;;;;;4.78;2.03;;;;;;;;;;5076064;28;20024;-37
2021/06/23 12:12:31;;;;;;;2.75;0.73;;;;;;;;;;5075829;28;20032;-38
2021/06/23 12:14:56;;;;;;;2.50;0.40;;;;;;;;;;5075361;28;20551;-38
2021/06/23 12:17:22;;;;;;;3.40;1.05;;;;;;;;;;5077267;28;20110;-37
2021/06/23 12:19:47;;;;;;;5.72;2.00;;;;;;;;;;5072498;28;20024;-37
2021/06/23 12:22:13;;;;;;;3.67;1.30;;;;;;;;;;5074657;28;20032;-37
2021/06/23 12:24:39;;;;;;;2.60;0.80;;;;;;;;;;5072186;28;20115;-37
2021/06/23 12:27:04;;;;;;;9.45;2.10;;;;;;;;;;5076098;28;20032;-39
2021/06/23 12:29:30;;;;;;;3.22;2.58;;;;;;;;;;5074926;28;20089;-44
2021/06/23 12:31:55;;;;;;;5.18;1.35;;;;;;;;;;5069573;28;20024;-39
2021/06/23 12:34:20;;;;;;;12.40;2.10;;;;;;;;;;5076354;28;20107;-40
2021/06/23 12:36:46;;;;;;;2.78;1.80;;;;;;;;;;5070569;28;20016;-40
2021/06/23 12:39:11;;;;;;;4.35;3.92;;;;;;;;;;5074956;28;20354;-45
2021/06/23 12:41:36;;;;;;;2.95;1.63;;;;;;;;;;5077383;28;20020;-42
2021/06/23 12:44:02;;;;;;;3.42;1.45;;;;;;;;;;5071639;28;20685;-39
2021/06/23 12:46:27;;;;;;;3.50;1.73;;;;;;;;;;5075609;28;20511;-40
2021/06/23 12:48:52;;;;;;;4.22;2.53;;;;;;;;;;5073608;28;20020;-41
2021/06/23 12:51:18;;;;;;;8.57;2.33;;;;;;;;;;5070990;28;20431;-40
2021/06/23 12:53:43;;;;;;;3.58;1.48;;;;;;;;;;5075873;28;20064;-41
2021/06/23 12:56:08;;;;;;;4.88;2.85;;;;;;;;;;5077564;28;20024;-42
2021/06/23 12:58:34;;;;;;;2.83;0.82;;;;;;;;;;5076460;28;20028;-41
2021/06/23 13:00:59;;;;;;;6.28;1.77;;;;;;;;;;5074379;28;20394;-39
2021/06/23 13:03:24;;;;;;;5.22;2.05;;;;;;;;;;5077073;28;20455;-41
2021/06/23 13:05:50;;;;;;;6.00;1.90;;;;;;;;;;5073778;28;20478;-41
2021/06/23 13:08:15;;;;;;;2.75;1.05;;;;;;;;;;5075724;28;20207;-41
2021/06/23 13:10:41;;;;;;;1.58;0.98;;;;;;;;;;5078063;28;20016;-44
2021/06/23 13:13:06;;;;;;;4.45;1.48;;;;;;;;;;5079800;28;20537;-44
2021/06/23 13:15:32;;;;;;;11.55;1.77;;;;;;;;;;5077204;28;20487;-40
2021/06/23 13:17:57;;;;;;;4.57;1.05;;;;;;;;;;5075257;28;20027;-45
2021/06/23 13:20:24;;;;;;;6.72;2.47;;;;;;;;;;5080536;28;20031;-42
2021/06/23 13:22:51;;;;;;;3.85;1.85;;;;;;;;;;5078474;28;20032;-43
2021/06/23 13:25:16;;;;;;;2.38;1.50;;;;;;;;;;5077755;28;20042;-42
2021/06/23 13:27:42;;;;;;;11.25;2.13;;;;;;;;;;5075360;28;20118;-41
2021/06/23 13:30:07;;;;;;;8.20;1.95;;;;;;;;;;5074178;28;20399;-43
2021/06/23 13:32:33;;;;;;;4.18;1.20;;;;;;;;;;5074819;28;20028;-43
2021/06/23 13:34:58;;;;;;;6.78;2.58;;;;;;;;;;5074971;28;20559;-42
2021/06/23 13:37:23;;;;;;;2.92;1.90;;;;;;;;;;5073964;28;20077;-42
2021/06/23 13:39:49;;;;;;;3.22;1.35;;;;;;;;;;5074577;28;20048;-42
2021/06/23 13:42:14;;;;;;;1.55;0.90;;;;;;;;;;5073772;28;20016;-40
2021/06/23 13:44:39;;;;;;;3.97;1.42;;;;;;;;;;5072666;28;20059;-41
2021/06/23 13:47:04;;;;;;;4.93;1.75;;;;;;;;;;5078250;28;20024;-42
2021/06/23 13:49:30;;;;;;;5.40;2.05;;;;;;;;;;5071791;28;20020;-41
2021/06/23 13:51:55;;;;;;;3.08;1.38;;;;;;;;;;5072668;28;20452;-42
2021/06/23 13:54:21;;;;;;;2.38;1.33;;;;;;;;;;5074012;28;20519;-43
2021/06/23 13:56:46;;;;;;;6.43;2.00;;;;;;;;;;5074420;28;20024;-43
2021/06/23 13:59:11;;;;;;;5.38;2.25;;;;;;;;;;5077520;28;20034;-41
2021/06/23 14:01:37;;;;;;;6.28;0.85;;;;;;;;;;5075213;28;20020;-41
2021/06/23 14:04:02;;;;;;;2.67;1.73;;;;;;;;;;5072969;28;20025;-41
2021/06/23 14:06:27;;;;;;;7.35;1.85;;;;;;;;;;5075739;28;20026;-42
2021/06/23 14:08:53;;;;;;;5.55;1.10;;;;;;;;;;5070867;28;20025;-42
2021/06/23 14:11:18;;;;;;;1.83;0.75;;;;;;;;;;5073267;28;20027;-40
2021/06/23 14:13:44;;;;;;;3.28;1.65;;;;;;;;;;5072806;28;20107;-39
2021/06/23 14:16:09;;;;;;;7.03;1.70;;;;;;;;;;5072071;28;20162;-39
2021/06/23 14:18:35;;;;;;;2.67;1.33;;;;;;;;;;5075993;28;20394;-39
2021/06/23 14:21:00;;;;;;;2.25;0.90;;;;;;;;;;5073863;28;20058;-42
2021/06/23 14:23:26;;;;;;;10.38;7.55;;;;;;;;;;5077231;28;20072;-41
2021/06/23 14:25:51;;;;;;;3.75;1.30;;;;;;;;;;5077473;28;20100;-42
2021/06/23 14:28:17;;;;;;;3.08;1.38;;;;;;;;;;5074881;28;20121;-42
2021/06/23 14:30:44;;;;;;;2.15;0.95;;;;;;;;;;5075405;28;20021;-39
2021/06/23 14:33:09;;;;;;;12.23;1.65;;;;;;;;;;5076466;28;20024;-39
2021/06/23 14:35:35;;;;;;;1.25;0.50;;;;;;;;;;5076461;28;20618;-41
2021/06/23 14:38:00;;;;;;;2.05;0.75;;;;;;;;;;5072476;28;20031;-41
2021/06/23 14:40:25;;;;;;;1.88;1.08;;;;;;;;;;5075049;28;20563;-42
2021/06/23 14:42:52;;;;;;;1.98;1.05;;;;;;;;;;5075589;28;20031;-40
2021/06/23 14:45:17;;;;;;;4.28;1.83;;;;;;;;;;5076965;28;20052;-40
2021/06/23 14:47:42;;;;;;;2.60;1.00;;;;;;;;;;5073800;28;20130;-41
2021/06/23 14:50:08;;;;;;;6.03;1.05;;;;;;;;;;5072200;28;20443;-41
2021/06/23 14:52:33;;;;;;;2.80;0.90;;;;;;;;;;5075287;28;20013;-42
2021/06/23 14:54:59;;;;;;;2.10;0.82;;;;;;;;;;5073473;28;20042;-40
2021/06/23 14:57:25;;;;;;;10.82;1.80;;;;;;;;;;5076685;28;20016;-41
2021/06/23 14:59:51;;;;;;;2.30;0.52;;;;;;;;;;5075257;28;20032;-43